createdAt,value
2023-10-26T00:02:17.526Z,16.20
2023-10-26T00:04:44.452Z,19.70
2023-10-26T00:07:11.313Z,14.02
2023-10-26T00:09:37.973Z,15.65
2023-10-26T00:12:04.975Z,13.63
2023-10-26T00:14:31.720Z,14.68
2023-10-26T00:16:58.403Z,16.90
2023-10-26T00:19:25.125Z,13.45
2023-10-26T00:21:54.089Z,12.20
2023-10-26T00:24:20.662Z,12.82
2023-10-26T00:26:49.213Z,16.00
2023-10-26T00:29:16.716Z,14.25
2023-10-26T00:31:44.256Z,13.63
2023-10-26T00:34:11.921Z,15.40
2023-10-26T00:36:39.577Z,13.35
2023-10-26T00:39:07.153Z,15.77
2023-10-26T00:41:34.766Z,18.02
2023-10-26T00:44:01.979Z,17.25
2023-10-26T00:46:29.270Z,16.85
2023-10-26T00:48:57.385Z,17.52
2023-10-26T00:51:25.929Z,19.15
2023-10-26T00:53:54.585Z,15.02
2023-10-26T00:56:23.778Z,17.55
2023-10-26T00:58:51.214Z,17.63
2023-10-26T01:01:19.681Z,17.63
2023-10-26T01:03:48.403Z,18.77
2023-10-26T01:06:15.159Z,17.95
2023-10-26T01:08:41.959Z,19.92
2023-10-26T01:11:09.012Z,21.13
2023-10-26T01:13:35.796Z,22.85
2023-10-26T01:16:05.644Z,20.13
2023-10-26T01:18:32.680Z,22.88
2023-10-26T01:20:59.758Z,19.45
2023-10-26T01:23:26.436Z,16.38
2023-10-26T01:25:55.960Z,18.95
2023-10-26T01:28:24.490Z,20.40
2023-10-26T01:30:51.395Z,23.90
2023-10-26T01:33:18.152Z,17.45
2023-10-26T01:35:47.109Z,21.63
2023-10-26T01:38:14.890Z,21.48
2023-10-26T01:40:41.762Z,19.17
2023-10-26T01:43:08.375Z,17.42
2023-10-26T01:45:35.457Z,20.52
2023-10-26T01:48:04.549Z,19.02
2023-10-26T01:50:32.500Z,18.35
2023-10-26T01:52:59.156Z,20.58
2023-10-26T01:55:25.780Z,18.88
2023-10-26T01:57:52.467Z,17.83
2023-10-26T02:00:19.557Z,21.25
2023-10-26T02:02:48.414Z,20.08
2023-10-26T02:05:15.315Z,19.50
2023-10-26T02:07:41.996Z,17.02
2023-10-26T02:10:09.409Z,20.75
2023-10-26T02:12:35.983Z,16.95
2023-10-26T02:15:02.615Z,18.30
2023-10-26T02:17:30.290Z,16.75
2023-10-26T02:19:57.152Z,15.70
2023-10-26T02:22:23.899Z,18.42
2023-10-26T02:24:50.490Z,20.45
2023-10-26T02:27:17.236Z,18.63
2023-10-26T02:29:43.916Z,16.85
2023-10-26T02:32:10.563Z,19.73
2023-10-26T02:34:37.369Z,16.10
2023-10-26T02:37:04.110Z,20.10
2023-10-26T02:39:30.686Z,17.30
2023-10-26T02:41:57.433Z,17.52
2023-10-26T02:44:24.075Z,16.83
2023-10-26T02:46:50.867Z,19.48
2023-10-26T02:49:17.539Z,14.27
2023-10-26T02:51:44.180Z,17.20
2023-10-26T02:54:10.823Z,17.70
2023-10-26T02:56:37.438Z,18.55
2023-10-26T02:59:05.026Z,17.55
2023-10-26T03:01:34.928Z,21.95
2023-10-26T03:04:04.037Z,17.73
2023-10-26T03:06:37.178Z,12.82
2023-10-26T03:09:04.496Z,19.13
2023-10-26T03:11:31.200Z,16.25
2023-10-26T03:13:57.826Z,16.45
2023-10-26T03:16:24.499Z,22.35
2023-10-26T03:18:51.092Z,17.88
2023-10-26T03:21:20.338Z,18.05
2023-10-26T03:23:53.810Z,17.60
2023-10-26T03:26:21.486Z,19.02
2023-10-26T03:28:51.884Z,18.40
2023-10-26T03:31:18.673Z,18.65
2023-10-26T03:33:45.928Z,22.50
2023-10-26T03:36:15.888Z,19.52
2023-10-26T03:38:43.140Z,24.38
2023-10-26T03:41:10.009Z,20.40
2023-10-26T03:43:37.136Z,19.10
2023-10-26T03:46:06.044Z,22.92
2023-10-26T03:48:33.657Z,22.98
2023-10-26T03:51:00.480Z,25.50
2023-10-26T03:53:27.869Z,24.25
2023-10-26T03:55:56.627Z,23.75
2023-10-26T03:58:23.261Z,21.05
2023-10-26T04:00:50.377Z,21.95
2023-10-26T04:03:17.066Z,18.48
2023-10-26T04:05:43.819Z,26.67
2023-10-26T04:08:10.988Z,19.88
2023-10-26T04:10:38.319Z,19.95
2023-10-26T04:13:05.450Z,20.52
2023-10-26T04:15:32.068Z,19.10
2023-10-26T04:17:59.631Z,22.42
2023-10-26T04:20:26.278Z,21.48
2023-10-26T04:22:53.524Z,23.48
2023-10-26T04:25:22.615Z,18.83
2023-10-26T04:27:49.208Z,17.08
2023-10-26T04:30:16.073Z,21.10
2023-10-26T04:32:43.703Z,17.27
2023-10-26T04:35:11.196Z,17.55
2023-10-26T04:37:38.802Z,18.05
2023-10-26T04:40:07.170Z,18.48
2023-10-26T04:42:33.856Z,22.65
2023-10-26T04:45:00.712Z,20.33
2023-10-26T04:47:27.425Z,23.27
2023-10-26T04:49:54.078Z,23.90
2023-10-26T04:52:21.697Z,24.73
2023-10-26T04:54:48.799Z,20.38
2023-10-26T04:57:16.088Z,21.58
2023-10-26T04:59:42.734Z,23.23
2023-10-26T05:02:09.566Z,21.75
2023-10-26T05:04:36.179Z,27.95
2023-10-26T05:07:04.013Z,27.13
2023-10-26T05:09:31.831Z,19.05
2023-10-26T05:11:58.513Z,21.17
2023-10-26T05:14:25.137Z,23.50
2023-10-26T05:16:52.341Z,21.38
2023-10-26T05:19:19.038Z,21.92
2023-10-26T05:21:45.933Z,21.13
2023-10-26T05:24:12.515Z,20.67
2023-10-26T05:26:39.156Z,19.90
2023-10-26T05:29:05.807Z,17.73
2023-10-26T05:31:32.434Z,18.30
2023-10-26T05:33:59.145Z,18.83
2023-10-26T05:36:25.793Z,23.88
2023-10-26T05:38:52.443Z,24.40
2023-10-26T05:41:19.197Z,24.92
2023-10-26T05:43:45.815Z,22.63
2023-10-26T05:46:13.045Z,19.23
2023-10-26T05:48:39.850Z,21.70
2023-10-26T05:51:06.861Z,24.73
2023-10-26T05:53:33.481Z,24.52
2023-10-26T05:56:00.267Z,19.65
2023-10-26T05:58:27.641Z,21.38
2023-10-26T06:00:54.433Z,23.45
2023-10-26T06:03:21.159Z,28.67
2023-10-26T06:05:48.876Z,29.70
2023-10-26T06:08:15.606Z,19.77
2023-10-26T06:10:42.798Z,27.67
2023-10-26T06:13:09.451Z,25.40
2023-10-26T06:15:36.790Z,24.13
2023-10-26T06:18:03.982Z,23.48
2023-10-26T06:20:30.725Z,26.92
2023-10-26T06:22:57.646Z,24.70
2023-10-26T06:25:26.551Z,24.35
2023-10-26T06:27:53.314Z,24.83
2023-10-26T06:30:20.044Z,24.77
2023-10-26T06:32:46.871Z,24.15
2023-10-26T06:35:13.707Z,26.10
2023-10-26T06:37:40.362Z,23.38
2023-10-26T06:40:08.290Z,21.02
2023-10-26T06:42:35.025Z,27.48
2023-10-26T06:45:01.836Z,26.73
2023-10-26T06:47:28.467Z,22.13
2023-10-26T06:49:55.114Z,25.65
2023-10-26T06:52:22.155Z,24.60
2023-10-26T06:54:49.358Z,24.83
2023-10-26T06:57:16.599Z,23.10
2023-10-26T06:59:43.664Z,25.83
2023-10-26T07:02:12.370Z,20.80
2023-10-26T07:04:39.426Z,26.17
2023-10-26T07:07:06.261Z,23.50
2023-10-26T07:09:32.907Z,20.27
2023-10-26T07:11:59.699Z,23.58
2023-10-26T07:14:27.180Z,24.88
2023-10-26T07:16:53.816Z,27.85
2023-10-26T07:19:20.486Z,23.05
2023-10-26T07:21:47.271Z,23.58
2023-10-26T07:24:13.893Z,23.83
2023-10-26T07:26:40.459Z,21.90
2023-10-26T07:29:07.704Z,26.55
2023-10-26T07:31:34.392Z,20.38
2023-10-26T07:34:01.008Z,19.90
2023-10-26T07:36:31.662Z,16.55
2023-10-26T07:39:47.151Z,20.83
2023-10-26T07:42:07.222Z,24.10
2023-10-26T07:44:34.820Z,16.20
2023-10-26T07:47:01.484Z,14.25
2023-10-26T07:49:28.286Z,14.93
2023-10-26T07:51:54.989Z,12.45
2023-10-26T07:54:21.642Z,12.68
2023-10-26T07:56:48.451Z,12.30
2023-10-26T07:59:15.211Z,10.23
2023-10-26T08:01:41.944Z,12.75
2023-10-26T08:04:09.130Z,7.75
2023-10-26T08:06:36.853Z,7.47
2023-10-26T08:09:03.739Z,7.93
2023-10-26T08:11:30.447Z,8.68
2023-10-26T08:13:57.148Z,5.90
2023-10-26T08:16:40.517Z,6.82
2023-10-26T08:19:10.812Z,5.07
2023-10-26T08:21:37.612Z,5.25
2023-10-26T08:24:04.489Z,4.07
2023-10-26T08:26:31.044Z,3.42
2023-10-26T08:29:11.981Z,4.45
2023-10-26T08:31:44.615Z,4.55
2023-10-26T08:34:12.391Z,5.55
2023-10-26T08:36:42.182Z,4.40
2023-10-26T08:39:11.434Z,3.90
2023-10-26T08:41:38.135Z,4.57
2023-10-26T08:44:05.226Z,5.07
2023-10-26T08:46:32.747Z,3.50
2023-10-26T08:49:02.969Z,4.88
2023-10-26T08:53:58.485Z,3.17
2023-10-26T08:56:25.331Z,4.55
2023-10-26T08:58:57.904Z,4.68
2023-10-26T09:01:25.509Z,4.25
2023-10-26T09:03:52.619Z,5.93
2023-10-26T09:06:19.345Z,6.10
2023-10-26T09:09:01.753Z,5.15
2023-10-26T09:11:28.901Z,4.60
2023-10-26T09:14:12.348Z,5.88
2023-10-26T09:16:39.313Z,6.05
2023-10-26T09:19:06.209Z,7.22
2023-10-26T09:21:50.494Z,7.57
2023-10-26T09:24:20.612Z,8.05
2023-10-26T09:29:13.686Z,4.80
2023-10-26T09:31:56.275Z,4.85
2023-10-26T09:34:25.256Z,5.28
2023-10-26T09:37:01.241Z,2.53
2023-10-26T09:39:31.775Z,5.70
2023-10-26T09:41:59.398Z,5.72
2023-10-26T09:44:26.532Z,7.65
2023-10-26T09:46:53.741Z,4.72
2023-10-26T09:49:21.687Z,4.20
2023-10-26T09:51:48.357Z,5.40
2023-10-26T09:54:16.431Z,5.03
2023-10-26T09:56:49.109Z,6.40
2023-10-26T09:59:16.077Z,4.93
2023-10-26T10:01:42.916Z,5.07
2023-10-26T10:04:11.191Z,4.30
2023-10-26T10:06:55.828Z,4.63
2023-10-26T10:09:24.383Z,5.15
2023-10-26T10:23:00.717Z,4.35
2023-10-26T10:28:40.995Z,6.30
2023-10-26T10:31:07.850Z,4.88
2023-10-26T10:33:35.762Z,5.20
2023-10-26T10:38:40.734Z,4.68
2023-10-26T10:41:09.704Z,5.35
2023-10-26T10:43:41.866Z,7.07
2023-10-26T10:46:14.759Z,4.18
2023-10-26T10:48:59.439Z,4.70
2023-10-26T10:54:22.340Z,5.47
2023-10-26T10:56:53.551Z,5.00
2023-10-26T10:59:30.741Z,4.20
2023-10-26T11:02:14.589Z,7.15
2023-10-26T11:05:09.652Z,3.60
2023-10-26T11:07:43.129Z,3.55
2023-10-26T11:10:10.169Z,3.63
2023-10-26T11:12:36.827Z,4.88
2023-10-26T11:15:05.176Z,3.35
2023-10-26T11:17:32.821Z,3.75
2023-10-26T11:19:59.530Z,3.53
2023-10-26T11:22:26.125Z,4.32
2023-10-26T11:24:52.876Z,3.90
2023-10-26T11:27:22.238Z,4.15
2023-10-26T11:30:06.638Z,8.48
2023-10-26T11:32:33.902Z,2.72
2023-10-26T11:37:47.005Z,4.43
2023-10-26T11:40:15.578Z,4.88
2023-10-26T11:43:00.773Z,5.68
2023-10-26T11:45:29.089Z,4.43
2023-10-26T11:47:58.015Z,6.53
2023-10-26T11:53:06.292Z,7.03
2023-10-26T11:55:34.295Z,7.13
2023-10-26T11:58:02.454Z,6.60
2023-10-26T12:00:31.269Z,5.22
2023-10-26T12:02:59.643Z,6.15
2023-10-26T12:05:27.456Z,4.70
2023-10-26T12:07:54.915Z,6.78
2023-10-26T12:10:24.026Z,7.93
2023-10-26T12:12:51.565Z,5.75
2023-10-26T12:15:19.454Z,7.93
2023-10-26T12:17:46.903Z,4.90
2023-10-26T12:20:15.063Z,7.03
2023-10-26T12:22:42.379Z,4.68
2023-10-26T12:25:09.620Z,4.95
2023-10-26T12:28:21.024Z,4.47
2023-10-26T12:30:23.108Z,4.43
2023-10-26T12:32:49.844Z,4.70
2023-10-26T12:35:16.944Z,3.80
2023-10-26T12:37:43.628Z,4.35
2023-10-26T12:40:10.550Z,4.43
2023-10-26T12:42:37.309Z,5.63
2023-10-26T12:45:04.616Z,5.47
2023-10-26T12:47:31.335Z,3.78
2023-10-26T12:49:57.954Z,6.53
2023-10-26T12:52:24.655Z,5.07
2023-10-26T12:54:51.288Z,3.47
2023-10-26T12:57:17.873Z,4.20
2023-10-26T12:59:44.519Z,3.78
2023-10-26T13:02:11.129Z,3.28
2023-10-26T13:04:37.970Z,3.08
2023-10-26T13:07:04.875Z,2.80
2023-10-26T13:09:31.671Z,3.20
2023-10-26T13:11:58.370Z,4.55
2023-10-26T13:14:24.964Z,2.55
2023-10-26T13:16:58.325Z,4.30
2023-10-26T13:19:26.213Z,3.92
2023-10-26T13:21:52.990Z,3.35
2023-10-26T13:24:19.733Z,4.78
2023-10-26T13:26:46.470Z,3.15
2023-10-26T13:29:13.494Z,2.45
2023-10-26T13:31:40.257Z,4.18
2023-10-26T13:34:08.736Z,3.78
2023-10-26T13:36:35.631Z,3.05
2023-10-26T13:39:05.453Z,1.60
2023-10-26T13:44:00.204Z,2.90
2023-10-26T13:46:29.396Z,2.67
2023-10-26T13:48:56.245Z,2.42
2023-10-26T13:51:23.126Z,2.38
2023-10-26T13:53:49.756Z,3.30
2023-10-26T13:56:16.587Z,2.30
2023-10-26T13:58:43.132Z,2.45
2023-10-26T14:01:13.804Z,3.30
2023-10-26T14:03:40.926Z,4.47
2023-10-26T14:06:09.143Z,3.15
2023-10-26T14:08:36.208Z,5.18
2023-10-26T14:11:03.726Z,3.30
2023-10-26T14:13:30.418Z,4.55
2023-10-26T14:15:57.042Z,4.75
2023-10-26T14:18:23.870Z,3.88
2023-10-26T14:20:50.787Z,2.75
2023-10-26T14:23:17.354Z,5.20
2023-10-26T14:25:43.963Z,5.05
2023-10-26T14:28:10.494Z,6.88
2023-10-26T14:30:37.279Z,4.72
2023-10-26T14:33:03.972Z,3.53
2023-10-26T14:35:30.582Z,10.20
2023-10-26T14:37:59.973Z,5.45
2023-10-26T14:40:27.049Z,4.43
2023-10-26T14:42:55.135Z,5.63
2023-10-26T14:45:24.874Z,7.15
2023-10-26T14:47:51.569Z,3.28
2023-10-26T14:50:18.370Z,5.90
2023-10-26T14:52:44.998Z,3.85
2023-10-26T14:55:11.655Z,7.13
2023-10-26T14:57:38.353Z,3.05
2023-10-26T15:00:05.462Z,5.47
2023-10-26T15:02:32.091Z,4.80
2023-10-26T15:04:58.748Z,16.13
2023-10-26T15:07:25.658Z,13.82
2023-10-26T15:10:24.374Z,10.82
2023-10-26T15:12:39.448Z,4.03
2023-10-26T15:15:06.736Z,8.05
2023-10-26T15:17:33.603Z,7.60
2023-10-26T15:20:00.343Z,5.03
2023-10-26T15:22:27.266Z,23.35
2023-10-26T15:24:53.980Z,8.80
2023-10-26T15:27:20.866Z,10.25
2023-10-26T15:29:47.639Z,10.73
2023-10-26T15:32:19.148Z,8.45
2023-10-26T15:34:47.512Z,12.60
2023-10-26T15:37:15.086Z,7.18
2023-10-26T15:39:42.996Z,8.88
2023-10-26T15:42:10.213Z,7.30
2023-10-26T15:44:37.581Z,5.53
2023-10-26T15:47:05.367Z,6.72
2023-10-26T15:49:36.233Z,6.63
2023-10-26T15:52:04.194Z,6.15
2023-10-26T15:54:31.025Z,7.30
2023-10-26T15:56:59.215Z,6.38
2023-10-26T15:59:26.084Z,4.75
2023-10-26T16:01:52.893Z,5.43
2023-10-26T16:04:19.694Z,10.02
2023-10-26T16:06:47.988Z,7.18
2023-10-26T16:09:15.061Z,5.40
2023-10-26T16:11:41.946Z,3.72
2023-10-26T16:14:08.803Z,5.22
2023-10-26T16:16:35.593Z,7.35
2023-10-26T16:19:02.383Z,6.85
2023-10-26T16:21:29.080Z,5.40
2023-10-26T16:23:55.660Z,3.65
2023-10-26T16:26:22.812Z,8.95
2023-10-26T16:28:50.717Z,5.68
2023-10-26T16:31:17.928Z,6.40
2023-10-26T16:33:46.038Z,5.57
2023-10-26T16:36:12.942Z,4.78
2023-10-26T16:38:39.728Z,6.53
2023-10-26T16:41:06.556Z,6.50
2023-10-26T16:43:33.254Z,4.47
2023-10-26T16:46:00.712Z,4.63
2023-10-26T16:48:27.988Z,5.50
2023-10-26T16:50:56.421Z,5.47
2023-10-26T16:53:31.314Z,5.25
2023-10-26T16:56:01.614Z,4.65
2023-10-26T16:58:28.999Z,3.13
2023-10-26T17:00:58.971Z,4.13
2023-10-26T17:03:26.732Z,2.95
2023-10-26T17:05:53.395Z,6.28
2023-10-26T17:08:20.942Z,7.63
2023-10-26T17:10:49.640Z,3.30
2023-10-26T17:13:17.141Z,6.90
2023-10-26T17:15:44.365Z,3.92
2023-10-26T17:18:11.190Z,7.65
2023-10-26T17:20:38.792Z,5.10
2023-10-26T17:23:05.562Z,5.50
2023-10-26T17:25:36.028Z,5.18
2023-10-26T17:28:03.213Z,9.02
2023-10-26T17:30:30.574Z,6.57
2023-10-26T17:32:57.544Z,4.45
2023-10-26T17:35:24.405Z,6.03
2023-10-26T17:37:52.690Z,7.28
2023-10-26T17:40:19.549Z,5.75
2023-10-26T17:42:46.240Z,4.32
2023-10-26T17:45:12.868Z,9.68
2023-10-26T17:47:39.598Z,6.10
2023-10-26T17:50:06.672Z,3.88
2023-10-26T17:52:33.290Z,4.75
2023-10-26T17:55:03.656Z,7.10
2023-10-26T17:57:31.696Z,6.40
2023-10-26T17:59:58.484Z,13.02
2023-10-26T18:02:25.177Z,6.95
2023-10-26T18:04:52.053Z,4.75
2023-10-26T18:07:18.777Z,3.42
2023-10-26T18:09:45.694Z,6.85
2023-10-26T18:12:15.797Z,7.65
2023-10-26T18:14:42.670Z,7.32
2023-10-26T18:17:09.402Z,6.13
2023-10-26T18:19:36.127Z,3.83
2023-10-26T18:22:02.991Z,6.28
2023-10-26T18:24:32.834Z,4.03
2023-10-26T18:26:59.877Z,3.78
2023-10-26T18:29:28.019Z,6.25
2023-10-26T18:31:57.107Z,6.15
2023-10-26T18:34:23.983Z,7.47
2023-10-26T18:36:51.110Z,8.07
2023-10-26T18:39:17.742Z,4.10
2023-10-26T18:41:45.839Z,4.97
2023-10-26T18:44:12.663Z,6.03
2023-10-26T18:46:41.613Z,6.63
2023-10-26T18:49:10.164Z,4.32
2023-10-26T18:51:40.581Z,4.45
2023-10-26T18:54:08.223Z,6.75
2023-10-26T18:56:34.971Z,7.05
2023-10-26T18:59:02.503Z,11.60
2023-10-26T19:01:30.099Z,10.57
2023-10-26T19:04:02.917Z,5.28
2023-10-26T19:06:31.820Z,7.80
2023-10-26T19:09:00.338Z,8.57
2023-10-26T19:11:27.215Z,5.20
2023-10-26T19:13:54.415Z,3.42
2023-10-26T19:16:21.680Z,6.85
2023-10-26T19:18:48.480Z,9.07
2023-10-26T19:21:15.310Z,7.32
2023-10-26T19:23:42.808Z,7.63
2023-10-26T19:26:11.089Z,5.78
2023-10-26T19:28:37.905Z,10.98
2023-10-26T19:31:05.691Z,7.65
2023-10-26T19:33:32.651Z,10.52
2023-10-26T19:35:59.379Z,5.82
2023-10-26T19:38:26.165Z,8.00
2023-10-26T19:40:53.269Z,4.53
2023-10-26T19:43:20.333Z,6.00
2023-10-26T19:45:46.976Z,6.30
2023-10-26T19:48:15.188Z,7.00
2023-10-26T19:50:42.085Z,7.18
2023-10-26T19:53:08.712Z,8.75
2023-10-26T19:55:35.336Z,8.15
2023-10-26T19:58:02.118Z,8.30
2023-10-26T20:00:30.055Z,8.73
2023-10-26T20:02:56.819Z,6.38
2023-10-26T20:05:23.526Z,9.48
2023-10-26T20:07:50.134Z,7.53
2023-10-26T20:10:16.871Z,7.13
2023-10-26T20:12:43.774Z,6.55
2023-10-26T20:15:12.259Z,7.88
2023-10-26T20:17:38.924Z,6.25
2023-10-26T20:20:07.885Z,13.77
2023-10-26T20:22:35.145Z,6.47
2023-10-26T20:25:02.340Z,8.45
2023-10-26T20:27:29.037Z,6.32
2023-10-26T20:29:55.972Z,9.02
2023-10-26T20:32:22.829Z,11.77
2023-10-26T20:34:49.586Z,10.23
2023-10-26T20:37:16.386Z,9.45
2023-10-26T20:39:44.690Z,10.70
2023-10-26T20:42:11.648Z,9.13
2023-10-26T20:44:38.597Z,11.27
2023-10-26T20:47:06.354Z,13.07
2023-10-26T20:49:33.113Z,9.88
2023-10-26T20:51:59.765Z,12.82
2023-10-26T20:54:26.398Z,10.50
2023-10-26T20:56:53.078Z,9.70
2023-10-26T20:59:19.858Z,8.57
2023-10-26T21:01:46.485Z,8.85
2023-10-26T21:04:13.296Z,9.48
2023-10-26T21:06:40.606Z,10.10
2023-10-26T21:09:07.219Z,20.35
2023-10-26T21:11:33.931Z,43.25
2023-10-26T21:14:00.666Z,15.68
2023-10-26T21:16:27.376Z,10.70
2023-10-26T21:18:54.071Z,9.85
2023-10-26T21:21:20.748Z,6.32
2023-10-26T21:23:47.461Z,7.68
2023-10-26T21:26:14.078Z,8.68
2023-10-26T21:28:42.783Z,7.63
2023-10-26T21:31:09.928Z,4.70
2023-10-26T21:33:36.903Z,6.57
2023-10-26T21:36:06.214Z,7.28
2023-10-26T21:38:32.918Z,9.77
2023-10-26T21:41:05.071Z,7.28
2023-10-26T21:43:32.967Z,6.82
2023-10-26T21:46:04.175Z,8.40
2023-10-26T21:48:30.972Z,9.27
2023-10-26T21:50:57.798Z,11.45
2023-10-26T21:53:24.484Z,7.97
2023-10-26T21:55:51.509Z,16.70
2023-10-26T21:58:18.950Z,282.60
2023-10-26T22:00:46.117Z,197.02
2023-10-26T22:03:13.001Z,57.53
2023-10-26T22:05:39.711Z,11.15
2023-10-26T22:08:06.899Z,9.07
2023-10-26T22:10:33.597Z,8.50
2023-10-26T22:13:00.339Z,7.45
2023-10-26T22:15:27.145Z,6.10
2023-10-26T22:17:53.886Z,10.55
2023-10-26T22:20:20.892Z,12.18
2023-10-26T22:22:47.585Z,8.48
2023-10-26T22:25:14.381Z,11.30
2023-10-26T22:27:41.490Z,12.55
2023-10-26T22:30:08.705Z,18.05
2023-10-26T22:32:35.397Z,12.35
2023-10-26T22:35:02.268Z,14.50
2023-10-26T22:37:29.074Z,6.03
2023-10-26T22:39:55.695Z,6.50
2023-10-26T22:42:22.373Z,4.78
2023-10-26T22:44:50.609Z,8.52
2023-10-26T22:47:17.183Z,4.55
2023-10-26T22:49:44.533Z,5.43
2023-10-26T22:52:11.534Z,10.15
2023-10-26T22:54:38.180Z,6.03
2023-10-26T22:57:05.008Z,8.65
2023-10-26T22:59:31.642Z,6.75
2023-10-26T23:01:58.282Z,8.13
2023-10-26T23:04:26.230Z,10.73
2023-10-26T23:06:53.051Z,11.98
2023-10-26T23:09:19.887Z,11.82
2023-10-26T23:11:46.557Z,6.30
2023-10-26T23:14:13.271Z,9.98
2023-10-26T23:16:40.340Z,6.65
2023-10-26T23:19:07.299Z,7.35
2023-10-26T23:21:34.009Z,9.65
2023-10-26T23:24:03.352Z,11.63
2023-10-26T23:26:33.182Z,10.73
2023-10-26T23:29:02.737Z,6.10
2023-10-26T23:31:29.480Z,10.45
2023-10-26T23:33:56.247Z,23.27
2023-10-26T23:36:23.003Z,6.68
2023-10-26T23:38:49.687Z,9.80
2023-10-26T23:41:16.845Z,13.35
2023-10-26T23:43:43.606Z,11.18
2023-10-26T23:46:10.342Z,8.73
2023-10-26T23:48:37.891Z,12.75
2023-10-26T23:51:04.792Z,18.15
2023-10-26T23:53:32.197Z,7.43
2023-10-26T23:55:59.294Z,11.63
2023-10-26T23:58:25.921Z,33.50
